Impacts METAR Board
IDs:

KMSP - Minneapolis-St Paul, MN, US

Updated at: 0800 UTC 18 Sep 2021
Potential Impact None Slight Moderate High
Time 17/20Z 17/21Z 17/22Z 17/23Z 18/00Z 18/01Z 18/02Z 18/03Z 18/04Z 18/05Z 18/06Z 18/07Z 18/08Z
Temp71 71 71 69 66 66 61 60 61 57 56 53 53
Dewpt38 38 39 40 40 40 45 44 43 46 47 47 47
Altim30.15 30.15 30.15 30.16 30.17 30.18 30.20 30.20 30.21 30.22 30.22 30.23 30.22
VIS10 10 10 10 10 10 10 10 10 10 10 10 10
CIG-- -- -- -- -- -- -- -- -- -- -- -- --
CoverFEWFEWFEWFEWFEWSCTFEWFEWFEWCLRCLRCLRCLR
FltCatVFRVFRVFRVFRVFRVFRVFRVFRVFRVFRVFRVFRVFR
WX--------------------------
WDir310330310300300300280000000
WSpd11 7 9 9 6 4 3 0 0 0 0 0 0
WGst-- -- 17 -- -- -- -- -- -- -- -- -- --
Raw hourly METARs
KMSP 171953Z 31011KT 10SM FEW250 22/03 A3015 RMK AO2 SLP205 T02170033
KMSP 172053Z 33007KT 10SM FEW250 22/03 A3015 RMK AO2 SLP206 T02170033 57003
KMSP 172153Z 31009G17KT 10SM FEW250 22/04 A3015 RMK AO2 SLP209 T02170039
KMSP 172253Z 30009KT 10SM FEW200 FEW250 21/04 A3016 RMK AO2 SLP212 T02060044
KMSP 172353Z 30006KT 10SM FEW200 FEW250 19/04 A3017 RMK AO2 SLP217 T01890044 10222 20189 53009
KMSP 180053Z 30004KT 10SM FEW200 SCT250 19/04 A3018 RMK AO2 SLP218 T01890044
KMSP 180153Z 28003KT 10SM FEW200 16/07 A3020 RMK AO2 SLP225 T01610072
KMSP 180253Z 00000KT 10SM FEW200 16/07 A3020 RMK AO2 SLP227 T01560067 53009
KMSP 180353Z 00000KT 10SM FEW200 16/06 A3021 RMK AO2 SLP229 T01610061
KMSP 180453Z 00000KT 10SM CLR 14/08 A3022 RMK AO2 SLP232 T01390078
KMSP 180553Z 00000KT 10SM CLR 13/08 A3022 RMK AO2 SLP233 T01330083 10189 20128 402560128 51006
KMSP 180653Z 00000KT 10SM CLR 12/08 A3023 RMK AO2 SLP235 T01170083
KMSP 180753Z 00000KT 10SM CLR 12/08 A3022 RMK AO2 SLP235 T01170083



Page loaded:  08:15 UTC  |   01:15 AM Pacific  |   02:15 AM Mountain  |   03:15 AM Central  |   04:15 AM Eastern

 

ADVISORIES

FORECASTS

FORECASTS

OBSERVATIONS

USER TOOLS

ABOUT US